createdAt,value
2022-09-28T00:01:22.229Z,3.90
2022-09-28T00:03:54.537Z,3.90
2022-09-28T00:06:25.967Z,3.90
2022-09-28T00:08:54.831Z,3.50
2022-09-28T00:11:28.306Z,4.10
2022-09-28T00:14:02.559Z,3.70
2022-09-28T00:16:35.807Z,3.80
2022-09-28T00:19:05.310Z,3.60
2022-09-28T00:21:37.475Z,3.90
2022-09-28T00:24:17.354Z,3.70
2022-09-28T00:26:58.050Z,3.80
2022-09-28T00:29:31.623Z,3.60
2022-09-28T00:32:04.212Z,4.20
2022-09-28T00:34:36.880Z,4.10
2022-09-28T00:37:09.065Z,3.90
2022-09-28T00:39:41.312Z,3.70
2022-09-28T00:42:22.749Z,3.80
2022-09-28T00:44:55.042Z,4.00
2022-09-28T00:47:49.740Z,3.70
2022-09-28T00:50:35.415Z,3.50
2022-09-28T00:53:18.855Z,3.50
2022-09-28T00:55:54.870Z,3.50
2022-09-28T00:58:31.688Z,3.60
2022-09-28T01:01:00.514Z,3.60
2022-09-28T01:03:29.880Z,3.20
2022-09-28T01:06:02.585Z,3.20
2022-09-28T01:08:34.507Z,3.60
2022-09-28T01:11:02.700Z,3.20
2022-09-28T01:13:32.428Z,3.40
2022-09-28T01:16:30.621Z,3.20
2022-09-28T01:19:14.419Z,3.50
2022-09-28T01:22:09.632Z,3.30
2022-09-28T01:24:47.771Z,3.60
2022-09-28T01:27:44.905Z,3.80
2022-09-28T01:30:18.469Z,3.10
2022-09-28T01:32:58.740Z,3.30
2022-09-28T01:35:43.414Z,3.50
2022-09-28T01:38:14.364Z,3.70
2022-09-28T01:40:46.113Z,3.20
2022-09-28T01:43:28.240Z,3.10
2022-09-28T01:46:06.481Z,3.30
2022-09-28T01:48:57.329Z,3.00
2022-09-28T01:51:42.035Z,3.40
2022-09-28T01:54:14.906Z,3.40
2022-09-28T01:56:54.460Z,3.30
2022-09-28T01:59:29.726Z,3.10
2022-09-28T02:02:15.653Z,3.20
2022-09-28T02:04:56.395Z,3.20
2022-09-28T02:07:34.624Z,3.30
2022-09-28T02:10:16.123Z,3.30
2022-09-28T02:12:57.734Z,3.50
2022-09-28T02:15:37.255Z,3.00
2022-09-28T02:18:05.859Z,3.60
2022-09-28T02:20:36.886Z,3.40
2022-09-28T02:23:05.354Z,3.00
2022-09-28T02:25:56.405Z,3.10
2022-09-28T02:28:24.482Z,3.30
2022-09-28T02:30:52.602Z,2.90
2022-09-28T02:33:31.426Z,3.50
2022-09-28T02:36:01.232Z,3.10
2022-09-28T02:38:31.949Z,3.10
2022-09-28T02:41:58.264Z,3.20
2022-09-28T02:48:42.718Z,2.90
2022-09-28T02:51:41.079Z,2.90
2022-09-28T02:54:22.756Z,2.80
2022-09-28T02:57:13.206Z,3.10
2022-09-28T03:00:11.755Z,3.30
2022-09-28T03:03:14.310Z,3.10
2022-09-28T03:06:32.241Z,3.00
2022-09-28T03:09:12.776Z,3.00
2022-09-28T03:11:49.625Z,3.00
2022-09-28T03:14:19.521Z,2.80
2022-09-28T03:16:54.153Z,3.00
2022-09-28T03:19:36.969Z,3.10
2022-09-28T03:22:05.965Z,3.30
2022-09-28T03:24:33.928Z,2.90
2022-09-28T03:27:03.410Z,2.70
2022-09-28T03:29:33.183Z,2.90
2022-09-28T03:32:04.089Z,2.80
2022-09-28T03:34:31.979Z,2.60
2022-09-28T03:37:00.252Z,3.30
2022-09-28T03:39:28.431Z,2.80
2022-09-28T03:41:56.891Z,2.90
2022-09-28T03:44:24.960Z,3.00
2022-09-28T03:46:52.817Z,2.70
2022-09-28T03:49:21.102Z,2.80
2022-09-28T03:51:50.960Z,3.00
2022-09-28T03:54:19.294Z,3.00
2022-09-28T03:56:47.365Z,2.90
2022-09-28T03:59:15.518Z,2.70
2022-09-28T04:01:43.929Z,2.90
2022-09-28T04:04:13.850Z,2.70
2022-09-28T04:06:42.451Z,3.10
2022-09-28T04:09:12.726Z,2.80
2022-09-28T04:12:02.940Z,2.70
2022-09-28T04:14:31.310Z,3.00
2022-09-28T04:16:59.186Z,2.80
2022-09-28T04:19:29.162Z,3.00
2022-09-28T04:22:19.789Z,2.90
2022-09-28T04:24:47.799Z,2.80
2022-09-28T04:27:34.709Z,2.90
2022-09-28T04:30:04.102Z,3.00
2022-09-28T04:32:33.701Z,2.80
2022-09-28T04:35:02.211Z,3.00
2022-09-28T04:37:31.477Z,3.50
2022-09-28T04:39:59.668Z,3.40
2022-09-28T04:42:28.025Z,3.90
2022-09-28T04:44:57.956Z,3.80
2022-09-28T04:47:25.986Z,3.90
2022-09-28T04:50:21.118Z,3.80
2022-09-28T04:53:07.545Z,3.80
2022-09-28T04:55:35.488Z,3.70
2022-09-28T04:58:04.922Z,3.40
2022-09-28T05:00:35.532Z,3.80
2022-09-28T05:03:34.161Z,3.40
2022-09-28T05:06:15.704Z,3.80
2022-09-28T05:08:48.978Z,3.70
2022-09-28T05:11:18.603Z,3.40
2022-09-28T05:13:46.696Z,3.90
2022-09-28T05:16:17.765Z,3.50
2022-09-28T05:19:06.374Z,3.50
2022-09-28T05:21:34.652Z,3.80
2022-09-28T05:24:07.684Z,3.60
2022-09-28T05:26:38.737Z,3.80
2022-09-28T05:29:08.590Z,3.90
2022-09-28T05:31:55.119Z,3.50
2022-09-28T05:34:42.108Z,3.60
2022-09-28T05:37:13.971Z,3.70
2022-09-28T05:39:43.439Z,3.40
2022-09-28T05:42:13.086Z,3.40
2022-09-28T05:44:42.896Z,3.20
2022-09-28T05:47:10.795Z,3.40
2022-09-28T05:49:38.666Z,3.50
2022-09-28T05:52:06.806Z,3.00
2022-09-28T05:54:38.359Z,3.00
2022-09-28T05:57:07.497Z,3.70
2022-09-28T05:59:36.303Z,3.10
2022-09-28T06:02:06.532Z,3.30
2022-09-28T06:04:34.813Z,3.90
2022-09-28T06:07:02.690Z,3.20
2022-09-28T06:09:30.950Z,3.00
2022-09-28T06:12:17.918Z,3.10
2022-09-28T06:14:49.555Z,3.60
2022-09-28T06:17:17.560Z,3.00
2022-09-28T06:19:52.425Z,2.90
2022-09-28T06:22:28.780Z,3.10
2022-09-28T06:27:34.485Z,3.60
2022-09-28T06:30:02.768Z,3.10
2022-09-28T06:32:31.248Z,3.30
2022-09-28T06:34:59.065Z,2.90
2022-09-28T06:37:29.033Z,3.40
2022-09-28T06:39:57.475Z,3.20
2022-09-28T06:42:25.804Z,3.10
2022-09-28T06:45:25.541Z,2.90
2022-09-28T06:48:17.662Z,3.00
2022-09-28T06:50:47.584Z,3.10
2022-09-28T06:53:47.536Z,3.00
2022-09-28T06:56:33.020Z,2.90
2022-09-28T06:59:01.538Z,3.00
2022-09-28T07:01:29.825Z,2.90
2022-09-28T07:04:06.078Z,2.90
2022-09-28T07:06:53.820Z,2.70
2022-09-28T07:09:49.406Z,3.20
2022-09-28T07:12:36.266Z,3.20
2022-09-28T07:15:13.228Z,2.90
2022-09-28T07:17:57.199Z,2.70
2022-09-28T07:20:30.311Z,3.00
2022-09-28T07:23:15.206Z,3.00
2022-09-28T07:26:08.790Z,2.70
2022-09-28T07:28:56.167Z,2.70
2022-09-28T07:31:40.639Z,2.90
2022-09-28T07:34:43.884Z,2.80
2022-09-28T07:37:32.831Z,2.80
2022-09-28T07:40:19.812Z,2.70
2022-09-28T07:42:50.374Z,2.90
2022-09-28T07:45:25.717Z,2.50
2022-09-28T07:47:56.858Z,2.80
2022-09-28T07:50:56.874Z,2.80
2022-09-28T07:53:33.502Z,3.10
2022-09-28T07:56:19.680Z,2.80
2022-09-28T07:58:54.584Z,2.80
2022-09-28T08:01:40.702Z,2.80
2022-09-28T08:04:11.412Z,2.70
2022-09-28T08:06:42.561Z,2.90
2022-09-28T08:09:11.751Z,2.70
2022-09-28T08:12:19.947Z,2.80
2022-09-28T08:15:00.348Z,3.00
2022-09-28T08:17:49.417Z,3.00
2022-09-28T08:20:38.657Z,2.60
2022-09-28T08:23:09.838Z,3.00
2022-09-28T08:25:38.899Z,2.70
2022-09-28T08:28:08.190Z,2.50
2022-09-28T08:30:47.178Z,2.70
2022-09-28T08:33:36.047Z,2.50
2022-09-28T08:36:22.448Z,2.80
2022-09-28T08:39:11.188Z,2.60
2022-09-28T08:42:42.998Z,2.50
2022-09-28T08:45:36.039Z,2.50
2022-09-28T08:48:51.750Z,2.80
2022-09-28T08:52:03.464Z,2.70
2022-09-28T08:55:02.193Z,2.70
2022-09-28T08:57:52.840Z,2.50
2022-09-28T09:00:45.597Z,2.50
2022-09-28T09:03:20.975Z,2.50
2022-09-28T09:06:22.697Z,2.60
2022-09-28T09:09:37.207Z,2.60
2022-09-28T09:13:17.218Z,2.60
2022-09-28T09:16:06.897Z,2.60
2022-09-28T09:19:36.485Z,2.60
2022-09-28T09:22:41.610Z,2.50
2022-09-28T09:25:21.593Z,2.60
2022-09-28T09:28:16.280Z,2.60
2022-09-28T09:31:14.848Z,2.40
2022-09-28T09:34:09.399Z,2.50
2022-09-28T09:37:34.691Z,2.70
2022-09-28T09:41:19.357Z,2.80
2022-09-28T09:44:39.346Z,2.50
2022-09-28T09:47:46.775Z,2.50
2022-09-28T09:50:54.257Z,2.60
2022-09-28T09:53:38.813Z,2.60
2022-09-28T09:56:21.285Z,2.30
2022-09-28T09:59:13.456Z,2.40
2022-09-28T10:02:34.979Z,2.60
2022-09-28T10:05:12.568Z,2.40
2022-09-28T10:07:49.953Z,2.70
2022-09-28T10:10:23.760Z,2.40
2022-09-28T10:12:55.825Z,2.40
2022-09-28T10:15:29.715Z,2.60
2022-09-28T10:18:16.115Z,2.50
2022-09-28T10:21:03.240Z,2.30
2022-09-28T10:23:41.119Z,2.40
2022-09-28T10:26:25.312Z,2.20
2022-09-28T10:31:53.292Z,2.40
2022-09-28T10:34:31.215Z,2.40
2022-09-28T10:37:11.976Z,2.40
2022-09-28T10:39:58.369Z,2.20
2022-09-28T10:42:34.134Z,2.40
2022-09-28T10:47:51.745Z,2.30
2022-09-28T10:50:28.335Z,2.30
2022-09-28T10:53:22.062Z,2.30
2022-09-28T10:56:18.780Z,2.80
2022-09-28T10:58:48.528Z,2.40
2022-09-28T11:01:31.378Z,2.40
2022-09-28T11:04:10.516Z,2.20
2022-09-28T11:06:41.997Z,2.20
2022-09-28T11:09:31.328Z,2.40
2022-09-28T11:12:14.495Z,2.30
2022-09-28T11:14:44.833Z,2.30
2022-09-28T11:17:40.518Z,2.20
2022-09-28T11:20:28.464Z,2.10
2022-09-28T11:23:18.927Z,2.20
2022-09-28T11:26:06.040Z,2.20
2022-09-28T11:28:38.447Z,2.10
2022-09-28T11:31:14.811Z,2.50
2022-09-28T11:34:36.487Z,2.40
2022-09-28T11:38:11.881Z,2.10
2022-09-28T11:41:17.632Z,2.20
2022-09-28T11:44:07.658Z,2.10
2022-09-28T11:47:03.749Z,2.00
2022-09-28T11:49:56.312Z,2.10
2022-09-28T11:52:38.965Z,2.10
2022-09-28T11:55:25.794Z,2.10
2022-09-28T11:58:24.782Z,2.30
2022-09-28T12:01:42.585Z,2.00
2022-09-28T12:04:22.707Z,2.30
2022-09-28T12:07:00.003Z,2.00
2022-09-28T12:09:41.892Z,2.00
2022-09-28T12:12:33.832Z,2.30
2022-09-28T12:15:28.742Z,2.10
2022-09-28T12:18:05.475Z,1.90
2022-09-28T12:20:45.021Z,2.30
2022-09-28T12:23:29.704Z,2.00
2022-09-28T12:26:03.404Z,1.80
2022-09-28T12:28:50.737Z,2.10
2022-09-28T12:31:30.182Z,2.10
2022-09-28T12:33:58.345Z,2.10
2022-09-28T12:36:47.612Z,2.00
2022-09-28T12:39:36.026Z,1.90
2022-09-28T12:42:20.464Z,1.90
2022-09-28T12:48:28.342Z,2.00
2022-09-28T12:51:52.441Z,2.10
2022-09-28T12:54:45.073Z,2.00
2022-09-28T12:57:30.039Z,2.00
2022-09-28T13:00:02.660Z,1.90
2022-09-28T13:02:55.809Z,2.00
2022-09-28T13:06:01.536Z,2.00
2022-09-28T13:09:03.085Z,1.90
2022-09-28T13:11:44.168Z,1.90
2022-09-28T13:15:01.707Z,1.80
2022-09-28T13:17:46.714Z,1.90
2022-09-28T13:20:48.432Z,1.90
2022-09-28T13:23:25.886Z,1.80
2022-09-28T13:26:14.823Z,2.00
2022-09-28T13:28:47.057Z,1.90
2022-09-28T13:31:29.241Z,1.90
2022-09-28T13:34:03.946Z,1.80
2022-09-28T13:36:31.850Z,1.90
2022-09-28T13:39:01.412Z,1.70
2022-09-28T13:41:31.839Z,1.90
2022-09-28T13:44:18.209Z,1.80
2022-09-28T13:47:04.481Z,1.70
2022-09-28T13:50:00.655Z,1.70
2022-09-28T13:52:48.346Z,1.70
2022-09-28T13:56:09.420Z,1.80
2022-09-28T13:58:54.292Z,1.80
2022-09-28T14:02:09.805Z,1.80
2022-09-28T14:05:01.024Z,1.70
2022-09-28T14:07:34.973Z,1.90
2022-09-28T14:10:44.581Z,1.90
2022-09-28T14:13:12.753Z,1.80
2022-09-28T14:15:45.426Z,1.70
2022-09-28T14:18:33.600Z,1.70
2022-09-28T14:21:55.605Z,1.70
2022-09-28T14:24:47.879Z,1.80
2022-09-28T14:27:37.630Z,1.60
2022-09-28T14:30:19.527Z,1.90
2022-09-28T14:32:59.926Z,2.00
2022-09-28T14:35:41.689Z,1.80
2022-09-28T14:38:40.270Z,1.80
2022-09-28T14:41:35.452Z,1.80
2022-09-28T14:44:09.570Z,1.80
2022-09-28T14:46:40.694Z,1.50
2022-09-28T14:49:17.820Z,2.00
2022-09-28T14:52:02.726Z,2.00
2022-09-28T14:54:53.600Z,1.80
2022-09-28T14:57:29.044Z,1.80
2022-09-28T14:59:59.948Z,2.00
2022-09-28T15:02:38.660Z,1.80
2022-09-28T15:05:06.826Z,2.10
2022-09-28T15:07:51.685Z,1.90
2022-09-28T15:10:37.320Z,2.00
2022-09-28T15:13:21.567Z,1.90
2022-09-28T15:15:56.205Z,2.00
2022-09-28T15:18:36.760Z,2.10
2022-09-28T15:21:05.262Z,1.80
2022-09-28T15:23:44.116Z,2.10
2022-09-28T15:26:32.400Z,1.90
2022-09-28T15:29:03.507Z,2.00
2022-09-28T15:31:36.348Z,2.00
2022-09-28T15:34:39.631Z,1.90
2022-09-28T15:37:11.641Z,1.90
2022-09-28T15:39:40.179Z,1.90
2022-09-28T15:42:08.661Z,2.20
2022-09-28T15:44:40.189Z,1.90
2022-09-28T15:47:33.031Z,2.20
2022-09-28T15:50:04.272Z,1.90
2022-09-28T15:52:40.784Z,2.20
2022-09-28T15:55:45.258Z,2.00
2022-09-28T15:58:21.764Z,2.00
2022-09-28T16:01:12.231Z,2.10
2022-09-28T16:03:40.469Z,2.00
2022-09-28T16:06:11.215Z,2.20
2022-09-28T16:08:46.046Z,2.10
2022-09-28T16:11:36.528Z,2.20
2022-09-28T16:14:22.504Z,2.00
2022-09-28T16:16:53.250Z,2.10
2022-09-28T16:19:29.669Z,2.30
2022-09-28T16:22:06.517Z,2.00
2022-09-28T16:24:38.696Z,2.20
2022-09-28T16:27:23.518Z,2.30
2022-09-28T16:30:32.488Z,2.20
2022-09-28T16:33:26.231Z,2.10
2022-09-28T16:35:54.105Z,2.30
2022-09-28T16:38:22.268Z,2.20
2022-09-28T16:40:55.095Z,1.90
2022-09-28T16:43:31.921Z,2.20
2022-09-28T16:46:07.744Z,2.00
2022-09-28T16:48:48.671Z,2.30
2022-09-28T16:51:19.551Z,2.20
2022-09-28T16:54:07.662Z,2.30
2022-09-28T16:56:37.640Z,2.60
2022-09-28T16:59:06.563Z,2.60
2022-09-28T17:01:42.579Z,3.00
2022-09-28T17:04:12.617Z,2.50
2022-09-28T17:06:41.925Z,2.70
2022-09-28T17:09:13.263Z,2.80
2022-09-28T17:11:41.341Z,3.20
2022-09-28T17:14:10.033Z,2.80
2022-09-28T17:17:06.726Z,3.00
2022-09-28T17:19:30.143Z,2.90
2022-09-28T17:22:00.585Z,3.00
2022-09-28T17:24:31.176Z,2.90
2022-09-28T17:27:01.204Z,2.90
2022-09-28T17:29:32.777Z,2.90
2022-09-28T17:32:03.680Z,3.00
2022-09-28T17:34:32.600Z,3.00
2022-09-28T17:37:00.869Z,2.80
2022-09-28T17:39:29.244Z,3.00
2022-09-28T17:41:57.326Z,3.20
2022-09-28T17:44:25.798Z,3.10
2022-09-28T17:46:54.290Z,3.00
2022-09-28T17:49:22.827Z,3.00
2022-09-28T17:51:52.990Z,3.00
2022-09-28T17:54:22.908Z,3.40
2022-09-28T17:56:51.914Z,3.20
2022-09-28T17:59:20.179Z,3.00
2022-09-28T18:01:49.088Z,3.10
2022-09-28T18:04:47.289Z,3.30
2022-09-28T18:07:07.329Z,3.20
2022-09-28T18:09:35.661Z,3.10
2022-09-28T18:12:06.130Z,3.40
2022-09-28T18:14:36.070Z,3.20
2022-09-28T18:17:04.614Z,3.40
2022-09-28T18:19:32.864Z,3.40
2022-09-28T18:22:01.848Z,3.20
2022-09-28T18:24:32.971Z,3.20
2022-09-28T18:27:01.393Z,3.30
2022-09-28T18:29:33.356Z,3.70
2022-09-28T18:32:03.203Z,3.30
2022-09-28T18:34:31.167Z,3.30
2022-09-28T18:36:59.072Z,3.40
2022-09-28T18:39:27.019Z,3.10
2022-09-28T18:41:55.273Z,3.40
2022-09-28T18:44:24.018Z,3.20
2022-09-28T18:46:52.650Z,3.30
2022-09-28T18:49:22.469Z,3.10
2022-09-28T18:51:50.842Z,3.30
2022-09-28T18:54:19.122Z,3.00
2022-09-28T18:56:47.701Z,3.20
2022-09-28T18:59:16.195Z,3.40
2022-09-28T19:01:44.346Z,3.00
2022-09-28T19:04:13.663Z,3.10
2022-09-28T19:06:44.670Z,3.00
2022-09-28T19:09:13.306Z,3.00
2022-09-28T19:11:41.451Z,3.20
2022-09-28T19:14:11.387Z,3.20
2022-09-28T19:16:39.400Z,3.20
2022-09-28T19:19:07.419Z,3.30
2022-09-28T19:21:35.805Z,3.10
2022-09-28T19:24:05.196Z,3.30
2022-09-28T19:26:34.384Z,3.20
2022-09-28T19:29:03.184Z,3.30
2022-09-28T19:31:32.712Z,2.90
2022-09-28T19:34:00.942Z,3.20
2022-09-28T19:36:29.651Z,3.30
2022-09-28T19:39:03.536Z,2.80
2022-09-28T19:41:51.538Z,2.90
2022-09-28T19:44:27.276Z,3.20
2022-09-28T19:47:07.107Z,3.20
2022-09-28T19:49:40.208Z,3.10
2022-09-28T19:52:16.549Z,3.20
2022-09-28T19:55:00.399Z,3.00
2022-09-28T19:57:32.603Z,3.00
2022-09-28T20:00:03.592Z,3.00
2022-09-28T20:02:36.635Z,3.10
2022-09-28T20:05:05.526Z,3.00
2022-09-28T20:07:34.988Z,3.20
2022-09-28T20:10:02.908Z,3.20
2022-09-28T20:12:30.921Z,2.80
2022-09-28T20:14:59.407Z,3.20
2022-09-28T20:17:27.701Z,3.10
2022-09-28T20:19:55.653Z,3.20
2022-09-28T20:22:23.834Z,3.20
2022-09-28T20:24:51.793Z,3.50
2022-09-28T20:27:22.111Z,3.30
2022-09-28T20:29:53.904Z,3.40
2022-09-28T20:32:21.839Z,3.60
2022-09-28T20:34:49.871Z,3.20
2022-09-28T20:37:17.915Z,3.40
2022-09-28T20:39:45.968Z,3.40
2022-09-28T20:42:15.680Z,3.30
2022-09-28T20:44:44.145Z,3.50
2022-09-28T20:47:12.349Z,3.20
2022-09-28T20:49:40.304Z,3.60
2022-09-28T20:52:08.993Z,3.30
2022-09-28T20:54:38.288Z,3.20
2022-09-28T20:57:17.574Z,3.40
2022-09-28T20:59:51.001Z,3.20
2022-09-28T21:02:22.675Z,3.20
2022-09-28T21:04:51.078Z,2.80
2022-09-28T21:07:18.921Z,3.10
2022-09-28T21:09:47.010Z,3.20
2022-09-28T21:12:15.528Z,3.10
2022-09-28T21:14:43.751Z,2.90
2022-09-28T21:17:12.227Z,2.80
2022-09-28T21:19:40.199Z,3.00
2022-09-28T21:22:08.402Z,3.30
2022-09-28T21:24:37.167Z,2.70
2022-09-28T21:27:05.412Z,3.10
2022-09-28T21:29:33.690Z,3.30
2022-09-28T21:32:02.164Z,2.90
2022-09-28T21:34:30.101Z,3.20
2022-09-28T21:36:58.035Z,2.90
2022-09-28T21:39:26.313Z,3.10
2022-09-28T21:41:54.683Z,3.00
2022-09-28T21:44:22.694Z,2.80
2022-09-28T21:46:50.624Z,3.00
2022-09-28T21:49:19.215Z,2.80
2022-09-28T21:51:47.291Z,2.80
2022-09-28T21:54:15.570Z,2.60
2022-09-28T21:56:43.947Z,2.70
2022-09-28T21:59:12.023Z,2.70
2022-09-28T22:01:41.968Z,2.70
2022-09-28T22:04:11.075Z,3.00
2022-09-28T22:06:39.928Z,2.70
2022-09-28T22:09:08.604Z,2.70
2022-09-28T22:11:37.149Z,2.90
2022-09-28T22:14:05.050Z,2.80
2022-09-28T22:16:33.032Z,2.60
2022-09-28T22:19:01.716Z,2.60
2022-09-28T22:21:35.001Z,2.50
2022-09-28T22:24:07.379Z,2.40
2022-09-28T22:26:37.419Z,2.60
2022-09-28T22:29:10.486Z,2.40
2022-09-28T22:31:41.228Z,2.50
2022-09-28T22:34:09.708Z,2.50
2022-09-28T22:36:37.874Z,2.50
2022-09-28T22:39:06.357Z,2.40
2022-09-28T22:41:35.656Z,2.40
2022-09-28T22:44:03.725Z,2.40
2022-09-28T22:46:32.681Z,2.50
2022-09-28T22:49:01.917Z,2.10
2022-09-28T22:51:31.421Z,2.40
2022-09-28T22:53:59.929Z,2.40
2022-09-28T22:56:29.102Z,2.50
2022-09-28T22:58:57.680Z,2.30
2022-09-28T23:01:30.447Z,2.30
2022-09-28T23:03:59.611Z,2.50
2022-09-28T23:06:30.439Z,2.40
2022-09-28T23:08:58.787Z,2.40
2022-09-28T23:11:29.067Z,2.30
2022-09-28T23:13:59.531Z,2.20
2022-09-28T23:16:28.229Z,2.40
2022-09-28T23:18:56.813Z,2.40
2022-09-28T23:21:27.476Z,2.30
2022-09-28T23:24:01.252Z,2.30
2022-09-28T23:26:32.796Z,2.20
2022-09-28T23:29:01.072Z,2.30
2022-09-28T23:31:32.132Z,2.30
2022-09-28T23:34:05.908Z,2.40
2022-09-28T23:36:34.734Z,2.30
2022-09-28T23:39:03.929Z,2.30
2022-09-28T23:41:32.593Z,2.50
2022-09-28T23:44:00.819Z,2.40
2022-09-28T23:46:28.867Z,2.50
2022-09-28T23:48:59.708Z,2.20
2022-09-28T23:51:28.767Z,2.30
2022-09-28T23:53:56.740Z,2.10
2022-09-28T23:56:24.612Z,2.20
2022-09-28T23:58:52.577Z,2.20
